createdAt,value
2019-01-18T00:01:44.475Z,99.90
2019-01-18T00:06:00.630Z,99.90
2019-01-18T00:10:16.589Z,99.90
2019-01-18T00:14:32.783Z,99.90
2019-01-18T00:18:48.015Z,99.90
2019-01-18T00:23:04.231Z,99.90
2019-01-18T00:27:20.244Z,99.90
2019-01-18T00:31:36.369Z,99.90
2019-01-18T00:35:52.369Z,99.90
2019-01-18T00:40:11.227Z,99.90
2019-01-18T00:44:27.569Z,99.60
2019-01-18T00:48:43.684Z,93.50
2019-01-18T00:57:20.803Z,95.30
2019-01-18T01:01:36.998Z,96.80
2019-01-18T01:05:53.188Z,97.30
2019-01-18T01:10:10.000Z,98.40
2019-01-18T01:14:26.388Z,97.00
2019-01-18T01:18:42.488Z,97.00
2019-01-18T01:22:59.129Z,99.10
2019-01-18T01:27:15.383Z,99.90
2019-01-18T01:31:31.798Z,99.90
2019-01-18T01:40:32.571Z,99.90
2019-01-18T01:44:48.352Z,99.90
2019-01-18T01:49:07.166Z,99.90
2019-01-18T01:53:23.232Z,99.90
2019-01-18T02:02:33.432Z,99.90
2019-01-18T02:06:49.400Z,99.90
2019-01-18T02:11:05.437Z,99.90
2019-01-18T02:15:21.920Z,99.90
2019-01-18T02:19:37.957Z,99.60
2019-01-18T02:23:54.686Z,99.90
2019-01-18T02:28:10.972Z,99.90
2019-01-18T02:32:27.259Z,99.70
2019-01-18T02:36:43.608Z,97.00
2019-01-18T02:41:00.132Z,96.20
2019-01-18T02:45:16.237Z,95.90
2019-01-18T02:49:35.131Z,94.40
2019-01-18T02:53:51.081Z,92.10
2019-01-18T02:58:07.187Z,93.00
2019-01-18T03:02:23.240Z,93.00
2019-01-18T03:06:39.664Z,93.50
2019-01-18T03:10:56.165Z,93.60
2019-01-18T03:15:12.203Z,93.50
2019-01-18T03:19:28.220Z,93.90
2019-01-18T03:23:43.124Z,94.10
2019-01-18T03:27:59.970Z,94.60
2019-01-18T03:32:16.146Z,95.40
2019-01-18T03:36:31.880Z,96.20
2019-01-18T03:40:48.113Z,97.20
2019-01-18T03:45:04.971Z,97.10
2019-01-18T03:49:19.897Z,97.70
2019-01-18T03:53:36.745Z,98.70
2019-01-18T03:57:52.625Z,99.80
2019-01-18T04:02:08.767Z,99.90
2019-01-18T04:06:25.402Z,99.90
2019-01-18T04:10:41.412Z,99.90
2019-01-18T04:14:57.584Z,99.90
2019-01-18T04:19:13.837Z,99.90
2019-01-18T04:23:29.772Z,99.90
2019-01-18T04:27:45.713Z,99.90
2019-01-18T04:32:01.698Z,99.90
2019-01-18T04:36:18.350Z,99.90
2019-01-18T04:40:34.565Z,99.90
2019-01-18T04:44:50.885Z,99.90
2019-01-18T04:49:07.436Z,99.90
2019-01-18T04:53:24.320Z,99.90
2019-01-18T04:57:41.085Z,99.90
2019-01-18T05:01:57.033Z,99.90
2019-01-18T05:06:13.624Z,99.90
2019-01-18T05:10:30.159Z,99.90
2019-01-18T05:14:46.551Z,99.90
2019-01-18T05:19:02.649Z,99.90
2019-01-18T05:23:18.960Z,99.90
2019-01-18T05:27:35.205Z,99.90
2019-01-18T05:31:52.052Z,99.90
2019-01-18T05:36:08.159Z,99.90
2019-01-18T05:45:04.170Z,99.90
2019-01-18T05:49:20.168Z,99.90
2019-01-18T05:53:36.700Z,99.90
2019-01-18T05:57:52.944Z,99.90
2019-01-18T06:02:09.641Z,99.90
2019-01-18T06:06:26.172Z,99.90
2019-01-18T06:10:46.639Z,99.90
2019-01-18T06:15:03.503Z,99.90
2019-01-18T06:19:19.738Z,99.90
2019-01-18T06:23:35.960Z,99.90
2019-01-18T06:27:52.213Z,99.90
2019-01-18T06:32:08.507Z,99.90
2019-01-18T06:36:25.224Z,99.90
2019-01-18T06:40:41.068Z,99.90
2019-01-18T06:49:17.872Z,99.90
2019-01-18T06:53:34.768Z,99.90
2019-01-18T07:02:15.179Z,99.90
2019-01-18T07:06:31.446Z,99.90
2019-01-18T07:10:47.635Z,99.90
2019-01-18T07:15:03.948Z,99.90
2019-01-18T07:28:07.417Z,99.90
2019-01-18T07:41:25.760Z,99.90
2019-01-18T07:59:02.602Z,99.90
2019-01-18T08:03:21.424Z,99.90
2019-01-18T08:07:38.368Z,99.90
2019-01-18T08:11:54.307Z,99.90
2019-01-18T08:16:10.625Z,99.90
2019-01-18T08:20:26.875Z,99.90
2019-01-18T08:24:43.115Z,99.90
2019-01-18T08:33:38.723Z,99.90
2019-01-18T08:37:54.821Z,99.90
2019-01-18T08:42:10.818Z,99.90
2019-01-18T08:46:26.543Z,99.90
2019-01-18T08:55:03.616Z,99.90
2019-01-18T08:59:20.141Z,99.90
2019-01-18T09:03:36.313Z,99.90
2019-01-18T09:07:52.740Z,99.90
2019-01-18T09:12:09.314Z,99.90
2019-01-18T09:16:26.101Z,99.90
2019-01-18T09:20:42.849Z,99.90
2019-01-18T09:24:58.858Z,99.90
2019-01-18T09:29:15.289Z,99.90
2019-01-18T09:33:31.699Z,99.90
2019-01-18T09:37:48.214Z,99.90
2019-01-18T09:42:04.161Z,99.90
2019-01-18T09:46:20.280Z,99.90
2019-01-18T09:55:30.500Z,99.90
2019-01-18T09:59:46.456Z,99.90
2019-01-18T10:04:02.540Z,99.90
2019-01-18T10:08:18.652Z,99.90
2019-01-18T10:12:35.000Z,99.90
2019-01-18T10:16:51.142Z,99.90
2019-01-18T10:21:07.491Z,99.90
2019-01-18T10:25:23.991Z,99.90
2019-01-18T10:29:43.175Z,99.90
2019-01-18T10:34:01.960Z,99.90
2019-01-18T10:38:18.188Z,97.40
2019-01-18T10:42:34.299Z,96.00
2019-01-18T10:46:50.454Z,94.10
2019-01-18T10:55:27.529Z,92.40
2019-01-18T10:59:44.195Z,92.00
2019-01-18T11:04:00.659Z,90.90
2019-01-18T11:08:17.576Z,88.50
2019-01-18T11:12:34.478Z,81.70
2019-01-18T11:16:50.557Z,88.30
2019-01-18T11:21:06.851Z,91.40
2019-01-18T11:25:23.279Z,88.70
2019-01-18T11:29:40.212Z,90.10
2019-01-18T11:33:56.181Z,79.80
2019-01-18T11:42:29.989Z,79.50
2019-01-18T11:46:46.797Z,81.30
2019-01-18T11:51:03.260Z,81.50
2019-01-18T11:55:19.148Z,78.80
2019-01-18T11:59:36.168Z,73.40
2019-01-18T12:08:15.958Z,77.80
2019-01-18T12:12:33.284Z,78.90
2019-01-18T12:16:49.508Z,78.60
2019-01-18T12:21:05.956Z,72.60
2019-01-18T12:25:22.224Z,78.30
2019-01-18T12:29:38.444Z,80.80
2019-01-18T12:33:54.507Z,80.10
2019-01-18T12:38:10.477Z,83.20
2019-01-18T12:42:26.556Z,82.10
2019-01-18T12:46:42.486Z,81.00
2019-01-18T12:50:58.684Z,83.30
2019-01-18T12:55:14.955Z,81.30
2019-01-18T12:59:30.842Z,81.90
2019-01-18T13:03:47.432Z,70.60
2019-01-18T13:08:03.372Z,73.60
2019-01-18T13:12:19.388Z,64.60
2019-01-18T13:16:35.823Z,72.70
2019-01-18T13:20:51.874Z,70.90
2019-01-18T13:25:08.185Z,64.00
2019-01-18T13:29:24.495Z,70.20
2019-01-18T13:33:40.891Z,75.10
2019-01-18T13:37:57.900Z,77.40
2019-01-18T13:46:53.727Z,71.50
2019-01-18T13:51:09.930Z,70.40
2019-01-18T13:55:26.247Z,62.60
2019-01-18T13:59:42.149Z,59.10
2019-01-18T14:03:58.227Z,67.50
2019-01-18T14:08:14.740Z,62.30
2019-01-18T14:12:31.234Z,60.30
2019-01-18T14:16:47.392Z,61.90
2019-01-18T14:21:04.141Z,60.90
2019-01-18T14:25:20.069Z,63.40
2019-01-18T14:29:36.323Z,59.60
2019-01-18T14:33:52.314Z,57.10
2019-01-18T14:38:08.271Z,60.30
2019-01-18T14:42:24.880Z,60.50
2019-01-18T14:46:40.902Z,57.00
2019-01-18T14:50:57.571Z,55.70
2019-01-18T14:55:14.614Z,56.70
2019-01-18T14:59:30.993Z,61.50
2019-01-18T15:03:47.333Z,60.80
2019-01-18T15:08:03.764Z,57.20
2019-01-18T15:12:20.488Z,56.00
2019-01-18T15:16:36.726Z,52.80
2019-01-18T15:20:53.454Z,61.90
2019-01-18T15:25:09.962Z,67.00
2019-01-18T15:29:26.809Z,67.20
2019-01-18T15:33:43.509Z,70.90
2019-01-18T15:37:59.515Z,68.60
2019-01-18T15:42:16.735Z,75.20
2019-01-18T15:46:33.461Z,70.80
2019-01-18T15:50:49.674Z,74.90
2019-01-18T15:55:06.448Z,77.30
2019-01-18T15:59:23.573Z,77.10
2019-01-18T16:03:40.501Z,77.90
2019-01-18T16:12:50.753Z,73.30
2019-01-18T16:17:06.479Z,74.50
2019-01-18T16:21:26.153Z,79.20
2019-01-18T16:25:42.176Z,74.50
2019-01-18T16:29:58.258Z,77.60
2019-01-18T16:34:14.546Z,79.60
2019-01-18T16:38:30.626Z,80.80
2019-01-18T16:42:47.164Z,80.20
2019-01-18T16:47:03.595Z,79.80
2019-01-18T16:51:19.936Z,81.30
2019-01-18T16:55:35.797Z,80.90
2019-01-18T16:59:52.057Z,79.20
2019-01-18T17:04:08.156Z,81.00
2019-01-18T17:08:24.492Z,81.90
2019-01-18T17:12:40.335Z,83.40
2019-01-18T17:16:56.266Z,81.50
2019-01-18T17:21:12.573Z,81.00
2019-01-18T17:25:29.015Z,81.10
2019-01-18T17:29:45.349Z,78.90
2019-01-18T17:34:01.299Z,79.30
2019-01-18T17:38:17.295Z,81.80
2019-01-18T17:42:33.467Z,80.80
2019-01-18T17:46:49.729Z,83.30
2019-01-18T17:51:09.149Z,86.60
2019-01-18T17:55:24.527Z,85.70
2019-01-18T17:59:40.741Z,84.20
2019-01-18T18:03:57.356Z,83.00
2019-01-18T18:08:13.768Z,84.20
2019-01-18T18:12:29.954Z,85.30
2019-01-18T18:16:45.919Z,87.20
2019-01-18T18:21:01.931Z,87.00
2019-01-18T18:25:18.088Z,87.70
2019-01-18T18:29:34.609Z,86.40
2019-01-18T18:33:51.038Z,87.10
2019-01-18T18:38:07.633Z,87.70
2019-01-18T18:42:28.320Z,90.30
2019-01-18T18:46:41.654Z,90.40
2019-01-18T18:50:58.391Z,90.80
2019-01-18T18:55:15.180Z,88.80
2019-01-18T18:59:31.968Z,89.60
2019-01-18T19:03:48.563Z,90.20
2019-01-18T19:08:05.666Z,90.70
2019-01-18T19:16:40.336Z,92.70
2019-01-18T19:20:57.944Z,92.90
2019-01-18T19:25:15.126Z,91.70
2019-01-18T19:29:33.562Z,91.80
2019-01-18T19:33:49.489Z,92.20
2019-01-18T19:38:05.691Z,91.10
2019-01-18T19:42:21.659Z,91.40
2019-01-18T19:46:39.719Z,92.80
2019-01-18T20:00:01.108Z,92.80
2019-01-18T20:04:17.130Z,92.50
2019-01-18T20:08:33.133Z,92.80
2019-01-18T20:12:49.274Z,92.60
2019-01-18T20:17:05.567Z,93.00
2019-01-18T20:25:42.862Z,93.60
2019-01-18T20:29:59.036Z,92.90
2019-01-18T20:34:18.486Z,93.10
2019-01-18T20:43:28.784Z,92.30
2019-01-18T20:47:45.295Z,92.10
2019-01-18T20:52:02.002Z,92.30
2019-01-18T20:56:18.377Z,93.20
2019-01-18T21:00:34.725Z,93.60
2019-01-18T21:04:50.865Z,93.90
2019-01-18T21:09:09.752Z,93.50
2019-01-18T21:18:08.719Z,94.20
2019-01-18T21:22:24.811Z,94.30
2019-01-18T21:26:41.389Z,94.80
2019-01-18T21:30:57.134Z,95.20
2019-01-18T21:39:59.828Z,96.50
2019-01-18T21:48:56.277Z,96.90
2019-01-18T21:53:12.228Z,97.50
2019-01-18T21:57:28.437Z,96.50
2019-01-18T22:01:44.477Z,96.60
2019-01-18T22:06:00.919Z,96.80
2019-01-18T22:10:16.966Z,96.90
2019-01-18T22:14:33.096Z,97.80
2019-01-18T22:18:49.145Z,98.20
2019-01-18T22:23:05.153Z,98.70
2019-01-18T22:27:21.513Z,98.60
2019-01-18T22:31:37.638Z,98.10
2019-01-18T22:35:53.755Z,98.90
2019-01-18T22:40:09.928Z,98.60
2019-01-18T22:44:26.892Z,98.90
2019-01-18T22:48:42.954Z,99.30
2019-01-18T22:52:59.143Z,99.80
2019-01-18T22:57:15.372Z,99.40
2019-01-18T23:01:33.067Z,99.30
2019-01-18T23:05:49.972Z,99.30
2019-01-18T23:10:06.216Z,99.50
2019-01-18T23:14:22.978Z,99.20
2019-01-18T23:18:38.891Z,99.60
2019-01-18T23:22:56.010Z,99.70
2019-01-18T23:27:12.159Z,99.90
2019-01-18T23:31:28.145Z,99.90
2019-01-18T23:35:44.551Z,99.90
2019-01-18T23:40:01.099Z,99.90
2019-01-18T23:44:17.471Z,99.90
2019-01-18T23:53:14.052Z,99.90
2019-01-18T23:57:30.142Z,99.90
